Mabank, Texas
Current Conditions -  °F | °C
As of 6:15 PM on Sunday 23 Nov 2014 (Local Time) from KF44 Reporting Station
Clear Clear  
Wind Chill: 66°   Ceiling: Unl
Heat Index: 66°   Visibility: 10mi
Dew Point: 41°   Wind: 0mph
Humidity: 40%   Direction: NA
Pressure: 29.51"   Gusts: NA
Location:  32.37°N, 96.1°W
Report Text: KF44 240015Z AUTO 00000KT 10SM CLR 19/05 A2951 RMK AO2
Loading
Personal Weather Stations






























Interactive Weather Map New forecast layout! Learn more

10-Day Weather Forecast

Advertisements
Track Severe Weather on mobile